Time;durP1;ratioP1;P1;durP2;ratioP2;P2;SDS_P1;SDS_P2;PMS_P1;PMS_P2;Temp;Humidity;BMP_temperature;BMP_pressure;BME280_temperature;BME280_humidity;BME280_pressure;Samples;Min_cycle;Max_cycle;Signal;HPM_P1;HPM_P2
2023/11/20 00:01:14;;;;;;;9.90;8.00;;;;;;;0.98;100.00;99113.17;103070;1258;97771;-82
2023/11/20 00:03:41;;;;;;;11.10;8.30;;;;;;;0.99;100.00;99115.02;103101;1257;138963;-82
2023/11/20 00:06:09;;;;;;;12.00;9.60;;;;;;;0.99;100.00;99115.20;102687;1263;1003750;-83
2023/11/20 00:08:36;;;;;;;13.50;10.10;;;;;;;0.99;100.00;99115.73;102422;1261;1002964;-82
2023/11/20 00:11:03;;;;;;;12.20;8.80;;;;;;;0.99;100.00;99113.15;102243;1259;1003441;-83
2023/11/20 00:13:30;;;;;;;12.50;9.60;;;;;;;0.99;100.00;99108.02;103571;1259;97789;-82
2023/11/20 00:15:56;;;;;;;11.50;9.50;;;;;;;0.99;100.00;99110.23;103004;1261;138373;-82
2023/11/20 00:18:23;;;;;;;12.30;9.60;;;;;;;0.98;100.00;99108.02;103138;1258;108349;-83
2023/11/20 00:20:50;;;;;;;11.10;8.70;;;;;;;0.97;100.00;99109.76;103311;1262;139841;-83
2023/11/20 00:23:17;;;;;;;11.00;9.20;;;;;;;0.96;100.00;99102.58;103017;1261;106669;-83
2023/11/20 00:25:44;;;;;;;13.40;9.60;;;;;;;0.99;100.00;99103.40;103068;1262;98546;-82
2023/11/20 00:28:10;;;;;;;12.00;9.20;;;;;;;1.00;100.00;99104.41;103295;1262;138057;-82
2023/11/20 00:30:37;;;;;;;13.00;9.60;;;;;;;1.02;100.00;99108.48;103032;1265;106383;-82
2023/11/20 00:33:04;;;;;;;13.40;9.20;;;;;;;1.05;100.00;99111.19;103043;1261;139204;-82
2023/11/20 00:35:31;;;;;;;13.20;9.80;;;;;;;1.07;100.00;99116.30;103478;1257;107629;-82
2023/11/20 00:37:58;;;;;;;13.10;9.90;;;;;;;1.07;100.00;99117.50;103475;1258;97706;-82
2023/11/20 00:40:24;;;;;;;12.40;9.50;;;;;;;1.09;100.00;99118.17;103137;1257;110975;-82
2023/11/20 00:42:51;;;;;;;12.70;10.20;;;;;;;1.14;100.00;99109.55;102451;1262;1003539;-83
2023/11/20 00:45:19;;;;;;;14.40;9.90;;;;;;;1.18;100.00;99105.54;102143;1263;1002847;-83
2023/11/20 00:47:45;;;;;;;14.50;10.20;;;;;;;1.22;100.00;99110.63;103693;1257;107872;-85
2023/11/20 00:50:13;;;;;;;11.80;10.10;;;;;;;1.22;100.00;99112.35;102506;1258;1003394;-84
2023/11/20 00:52:40;;;;;;;13.80;10.50;;;;;;;1.20;100.00;99113.40;104397;1257;112119;-84
2023/11/20 00:55:10;;;;;;;15.30;9.80;;;;;;;1.19;100.00;99114.27;103302;1263;107899;-83
2023/11/20 00:57:38;;;;;;;12.50;9.70;;;;;;;1.17;100.00;99108.80;104176;1257;138488;-85
2023/11/20 01:00:07;;;;;;;13.00;9.80;;;;;;;1.16;100.00;99108.83;104014;1257;106948;-84
2023/11/20 01:02:34;;;;;;;13.90;9.40;;;;;;;1.15;100.00;99110.89;103256;1263;138599;-86
2023/11/20 01:05:01;;;;;;;11.60;9.40;;;;;;;1.15;100.00;99110.39;103557;1263;110474;-83
2023/11/20 01:07:28;;;;;;;12.60;9.40;;;;;;;1.16;100.00;99109.86;103327;1260;108991;-84
2023/11/20 01:09:55;;;;;;;13.20;9.70;;;;;;;1.16;100.00;99112.08;102887;1268;138529;-84
2023/11/20 01:12:22;;;;;;;12.50;10.10;;;;;;;1.15;100.00;99112.61;102313;1259;1003661;-85
2023/11/20 01:14:48;;;;;;;12.50;9.20;;;;;;;1.14;100.00;99112.95;103344;1258;139144;-85
2023/11/20 01:17:16;;;;;;;11.40;8.80;;;;;;;1.14;100.00;99111.95;103782;1257;110140;-85
2023/11/20 01:19:44;;;;;;;11.00;8.50;;;;;;;1.15;100.00;99108.17;102695;1257;1002932;-86
2023/11/20 01:22:11;;;;;;;10.20;8.00;;;;;;;1.16;100.00;99107.63;103192;1263;138353;-85
2023/11/20 01:24:38;;;;;;;10.40;8.00;;;;;;;1.15;100.00;99107.13;102615;1262;1002813;-85
2023/11/20 01:27:06;;;;;;;12.10;8.50;;;;;;;1.14;100.00;99099.95;102988;1260;137577;-84
2023/11/20 01:29:33;;;;;;;11.40;9.50;;;;;;;1.17;100.00;99102.65;103321;1263;111144;-86
2023/11/20 01:32:00;;;;;;;10.00;8.70;;;;;;;1.19;100.00;99104.67;103062;1261;138707;-76
2023/11/20 01:34:27;;;;;;;13.80;9.90;;;;;;;1.21;100.00;99109.79;103091;1263;98993;-84
2023/11/20 01:36:54;;;;;;;12.90;10.20;;;;;;;1.22;100.00;99105.15;101537;1261;1003270;-87
2023/11/20 01:39:21;;;;;;;11.40;9.30;;;;;;;1.20;100.00;99100.90;102850;1263;139866;-87
2023/11/20 01:41:48;;;;;;;10.60;8.30;;;;;;;1.18;100.00;99097.33;102975;1263;111226;-86
2023/11/20 01:44:15;;;;;;;10.60;7.90;;;;;;;1.15;100.00;99094.98;102844;1258;139659;-86
2023/11/20 01:46:43;;;;;;;8.80;7.70;;;;;;;1.15;100.00;99093.96;103005;1261;97833;-87
2023/11/20 01:49:12;;;;;;;9.00;7.30;;;;;;;1.14;100.00;99103.89;103048;1261;109502;-86
2023/11/20 01:51:39;;;;;;;9.80;7.80;;;;;;;1.16;100.00;99110.04;102879;1260;138311;-87
2023/11/20 01:54:08;;;;;;;9.60;7.30;;;;;;;1.18;100.00;99110.85;102446;1263;1003116;-87
2023/11/20 01:56:35;;;;;;;10.00;7.50;;;;;;;1.21;100.00;99112.01;102841;1266;138784;-88
2023/11/20 01:59:05;;;;;;;8.50;6.90;;;;;;;1.22;100.00;99114.91;103045;1260;98320;-85
2023/11/20 02:01:33;;;;;;;8.90;7.20;;;;;;;1.25;100.00;99109.92;102981;1263;108055;-85
2023/11/20 02:04:02;;;;;;;8.90;6.60;;;;;;;1.29;100.00;99104.58;102966;1258;138794;-87
2023/11/20 02:06:29;;;;;;;8.70;6.80;;;;;;;1.31;100.00;99103.68;103012;1258;111913;-87
2023/11/20 02:08:56;;;;;;;9.40;7.30;;;;;;;1.34;100.00;99106.90;102823;1261;138619;-86
2023/11/20 02:11:26;;;;;;;8.30;7.00;;;;;;;1.36;100.00;99108.23;103018;1259;98192;-87
2023/11/20 02:13:54;;;;;;;8.40;6.80;;;;;;;1.37;100.00;99100.85;102445;1257;1003479;-84
2023/11/20 02:16:21;;;;;;;8.10;6.50;;;;;;;1.37;100.00;99097.77;102934;1258;97878;-86
2023/11/20 02:18:52;;;;;;;9.60;7.10;;;;;;;1.37;100.00;99102.56;103114;1262;112062;-87
2023/11/20 02:21:19;;;;;;;7.40;6.60;;;;;;;1.37;100.00;99100.17;102118;1258;1002854;-86
2023/11/20 02:23:46;;;;;;;7.80;6.90;;;;;;;1.37;100.00;99096.58;103111;1257;97848;-88
2023/11/20 02:26:35;;;;;;;8.20;7.10;;;;;;;1.37;100.00;99091.10;102897;1260;138177;-85
2023/11/20 02:29:17;;;;;;;7.60;6.20;;;;;;;1.37;100.00;99093.84;103144;1263;97897;-87
2023/11/20 02:31:44;;;;;;;9.30;6.90;;;;;;;1.34;100.00;99098.33;103144;1257;111872;-86
2023/11/20 02:34:11;;;;;;;8.30;6.60;;;;;;;1.33;100.00;99100.59;103157;1262;138318;-86
2023/11/20 02:36:38;;;;;;;8.40;6.70;;;;;;;1.33;100.00;99098.69;103100;1257;98362;-86
2023/11/20 02:39:05;;;;;;;7.90;6.80;;;;;;;1.33;100.00;99095.77;102177;1261;1003631;-86
2023/11/20 02:41:32;;;;;;;8.80;6.40;;;;;;;1.35;100.00;99090.45;103295;1259;97566;-88
2023/11/20 02:43:59;;;;;;;9.50;6.30;;;;;;;1.34;100.00;99094.90;103061;1260;111111;-87
2023/11/20 02:46:26;;;;;;;7.70;6.10;;;;;;;1.36;100.00;99095.91;103040;1261;107620;-86
2023/11/20 02:48:53;;;;;;;7.80;6.00;;;;;;;1.39;100.00;99093.96;102999;1264;97682;-85
2023/11/20 02:51:19;;;;;;;7.20;5.80;;;;;;;1.39;100.00;99091.24;102140;1261;1003587;-86
2023/11/20 02:53:46;;;;;;;6.80;5.80;;;;;;;1.38;100.00;99090.91;102339;1261;1005341;-86
2023/11/20 02:56:13;;;;;;;7.00;6.00;;;;;;;1.38;100.00;99092.79;102876;1257;1003015;-87
2023/11/20 02:58:40;;;;;;;8.50;6.00;;;;;;;1.39;100.00;99090.38;103045;1258;107738;-85
2023/11/20 03:01:09;;;;;;;6.90;5.90;;;;;;;1.42;100.00;99092.21;103243;1257;98236;-86
2023/11/20 03:03:36;;;;;;;8.10;6.10;;;;;;;1.43;100.00;99093.58;102299;1263;1003119;-87
2023/11/20 03:06:03;;;;;;;6.70;5.90;;;;;;;1.43;100.00;99089.11;103111;1257;97869;-87
2023/11/20 03:08:30;;;;;;;7.10;6.20;;;;;;;1.42;100.00;99091.18;102246;1260;1003042;-88
2023/11/20 03:10:57;;;;;;;6.90;5.70;;;;;;;1.42;100.00;99091.86;103014;1261;108070;-87
2023/11/20 03:13:24;;;;;;;7.30;5.70;;;;;;;1.46;100.00;99089.27;102295;1257;1003083;-89
2023/11/20 03:15:51;;;;;;;7.80;5.90;;;;;;;1.52;100.00;99090.89;103022;1257;139107;-89
2023/11/20 03:18:18;;;;;;;6.90;6.00;;;;;;;1.57;100.00;99088.58;102914;1257;97809;-88
2023/11/20 03:20:45;;;;;;;7.70;6.50;;;;;;;1.58;100.00;99080.69;102924;1260;137555;-89
2023/11/20 03:23:13;;;;;;;8.20;7.00;;;;;;;1.58;100.00;99083.59;103079;1259;107787;-89
2023/11/20 03:25:40;;;;;;;8.40;6.10;;;;;;;1.58;100.00;99080.85;103131;1257;98337;-87
2023/11/20 03:28:07;;;;;;;7.20;6.10;;;;;;;1.59;100.00;99083.41;102891;1261;138104;-86
2023/11/20 03:30:34;;;;;;;9.50;6.40;;;;;;;1.60;100.00;99084.25;102697;1261;1003115;-89
2023/11/20 03:33:01;;;;;;;8.30;6.30;;;;;;;1.63;100.00;99083.71;102295;1260;1015214;-88
2023/11/20 03:35:28;;;;;;;8.00;6.50;;;;;;;1.65;100.00;99082.48;102414;1261;1002919;-90
2023/11/20 03:37:55;;;;;;;7.20;5.90;;;;;;;1.66;100.00;99080.23;103057;1257;97906;-89
2023/11/20 03:40:22;;;;;;;7.50;6.40;;;;;;;1.65;100.00;99074.77;102979;1260;107311;-88
2023/11/20 03:42:49;;;;;;;8.90;7.20;;;;;;;1.65;100.00;99068.77;102953;1260;97894;-86
2023/11/20 03:45:16;;;;;;;9.40;7.20;;;;;;;1.70;100.00;99067.49;102852;1263;138408;-89
2023/11/20 03:47:43;;;;;;;11.30;7.50;;;;;;;1.73;100.00;99068.80;103069;1261;107498;-88
2023/11/20 03:50:11;;;;;;;9.00;7.40;;;;;;;1.72;100.00;99064.36;103673;1257;141070;-85
2023/11/20 03:52:38;;;;;;;9.60;7.30;;;;;;;1.70;100.00;99062.52;103028;1260;106948;-86
2023/11/20 03:55:06;;;;;;;9.30;6.90;;;;;;;1.64;100.00;99049.42;103016;1261;97710;-86
2023/11/20 03:57:33;;;;;;;9.10;6.90;;;;;;;1.66;100.00;99052.99;102937;1257;140827;-84
2023/11/20 03:59:59;;;;;;;9.60;7.40;;;;;;;1.63;100.00;99058.52;103005;1257;108339;-89
2023/11/20 04:02:26;;;;;;;9.90;7.90;;;;;;;1.65;100.00;99053.35;102933;1258;138686;-86
2023/11/20 04:04:54;;;;;;;10.90;8.40;;;;;;;1.71;100.00;99054.80;103106;1257;1002339;-86
2023/11/20 04:07:23;;;;;;;9.90;8.10;;;;;;;1.72;100.00;99055.79;103265;1261;97780;-86
2023/11/20 04:09:49;;;;;;;13.20;9.40;;;;;;;1.73;100.00;99053.90;103148;1257;138650;-85
2023/11/20 04:12:16;;;;;;;11.40;8.50;;;;;;;1.71;100.00;99048.80;103115;1261;107303;-85
2023/11/20 04:14:44;;;;;;;11.50;8.60;;;;;;;1.68;100.00;99047.30;102336;1258;1003675;-84
2023/11/20 04:17:11;;;;;;;12.70;8.50;;;;;;;1.68;100.00;99051.25;102363;1258;1002904;-86
2023/11/20 04:19:38;;;;;;;11.80;9.20;;;;;;;1.67;100.00;99050.24;103024;1263;97841;-87
2023/11/20 04:22:07;;;;;;;12.70;9.00;;;;;;;1.66;100.00;99045.29;101500;1260;1003089;-86
2023/11/20 04:24:34;;;;;;;14.20;10.30;;;;;;;1.67;100.00;99047.31;103116;1258;107571;-86
2023/11/20 04:27:00;;;;;;;14.50;10.90;;;;;;;1.68;100.00;99048.00;103310;1257;138255;-85
2023/11/20 04:29:27;;;;;;;15.60;11.50;;;;;;;1.67;100.00;99044.07;103298;1259;109488;-85
2023/11/20 04:31:54;;;;;;;16.30;12.00;;;;;;;1.64;100.00;99045.15;103069;1261;97793;-85
2023/11/20 04:34:21;;;;;;;16.20;11.80;;;;;;;1.61;100.00;99040.89;102922;1259;137990;-86
2023/11/20 04:36:47;;;;;;;20.10;12.30;;;;;;;1.59;100.00;99034.92;103005;1259;107695;-86
2023/11/20 04:39:14;;;;;;;15.50;11.60;;;;;;;1.55;100.00;99032.95;102262;1257;1002909;-88
2023/11/20 04:41:42;;;;;;;14.70;10.90;;;;;;;1.51;100.00;99036.43;103752;1257;109401;-86
2023/11/20 04:44:09;;;;;;;16.10;12.00;;;;;;;1.46;100.00;99032.57;103414;1257;137502;-87
2023/11/20 04:46:35;;;;;;;14.10;10.70;;;;;;;1.48;100.00;99040.59;103169;1257;111329;-86
2023/11/20 04:49:02;;;;;;;15.90;11.70;;;;;;;1.51;100.00;99042.09;103350;1260;108294;-87
2023/11/20 04:51:29;;;;;;;16.00;11.70;;;;;;;1.53;100.00;99046.67;102960;1261;139148;-87
2023/11/20 04:53:56;;;;;;;15.30;11.90;;;;;;;1.56;100.00;99045.77;103476;1259;106842;-87
2023/11/20 04:56:22;;;;;;;18.20;11.30;;;;;;;1.60;100.00;99045.19;102625;1257;1003206;-87
2023/11/20 04:58:49;;;;;;;18.10;12.10;;;;;;;1.62;100.00;99043.80;103345;1257;111159;-88
2023/11/20 05:01:16;;;;;;;16.60;12.90;;;;;;;1.63;100.00;99044.65;103613;1257;105695;-88
2023/11/20 05:03:43;;;;;;;17.90;12.90;;;;;;;1.65;100.00;99047.88;103176;1258;138205;-88
2023/11/20 05:06:14;;;;;;;21.40;14.40;;;;;;;1.67;100.00;99052.82;103537;1260;106925;-87
2023/11/20 05:08:41;;;;;;;19.60;14.40;;;;;;;1.66;100.00;99053.85;103093;1262;138287;-86
2023/11/20 05:11:08;;;;;;;20.90;14.50;;;;;;;1.65;100.00;99050.96;103049;1257;110960;-85
2023/11/20 05:13:35;;;;;;;19.10;14.30;;;;;;;1.60;100.00;99055.64;103065;1258;108819;-85
2023/11/20 05:16:01;;;;;;;21.00;15.00;;;;;;;1.57;100.00;99056.55;103101;1259;138622;-87
2023/11/20 05:18:28;;;;;;;19.90;14.90;;;;;;;1.58;100.00;99057.91;102214;1263;1002533;-85
2023/11/20 05:20:55;;;;;;;21.50;15.10;;;;;;;1.57;100.00;99059.29;102269;1261;1002824;-84
2023/11/20 05:23:22;;;;;;;22.10;15.10;;;;;;;1.57;100.00;99059.97;103048;1258;111881;-87
2023/11/20 05:25:49;;;;;;;19.30;15.10;;;;;;;1.58;100.00;99059.27;102983;1259;106601;-84
2023/11/20 05:28:16;;;;;;;20.30;14.20;;;;;;;1.58;100.00;99062.70;102920;1259;139352;-89
2023/11/20 05:30:43;;;;;;;18.00;12.90;;;;;;;1.57;100.00;99064.42;103782;1259;108184;-86
2023/11/20 05:33:10;;;;;;;24.80;14.80;;;;;;;1.56;100.00;99068.21;103495;1258;138939;-86
2023/11/20 05:35:39;;;;;;;17.70;12.90;;;;;;;1.55;100.00;99066.17;101959;1260;1004539;-80
2023/11/20 05:38:06;;;;;;;15.00;11.70;;;;;;;1.52;100.00;99068.80;103044;1258;139360;-77
2023/11/20 05:40:33;;;;;;;17.70;12.00;;;;;;;1.52;100.00;99067.94;103148;1258;98352;-76
2023/11/20 05:43:00;;;;;;;15.30;11.00;;;;;;;1.53;100.00;99062.96;102250;1261;1003557;-77
2023/11/20 05:45:27;;;;;;;14.50;10.30;;;;;;;1.56;100.00;99066.66;102938;1260;139779;-76
2023/11/20 05:47:54;;;;;;;12.00;9.50;;;;;;;1.62;100.00;99068.30;102686;1259;1003243;-79
2023/11/20 05:50:21;;;;;;;16.90;10.50;;;;;;;1.64;100.00;99069.14;102433;1260;1003053;-86
2023/11/20 05:52:48;;;;;;;11.40;8.90;;;;;;;1.68;100.00;99070.27;103132;1259;97804;-86
2023/11/20 05:55:15;;;;;;;12.50;9.30;;;;;;;1.70;100.00;99064.76;103450;1259;107094;-79
2023/11/20 05:57:41;;;;;;;11.70;8.50;;;;;;;1.76;100.00;99071.15;102872;1260;138811;-78
2023/11/20 06:00:10;;;;;;;9.40;7.80;;;;;;;1.82;100.00;99071.95;103397;1258;110218;-77
2023/11/20 06:02:38;;;;;;;9.80;7.80;;;;;;;1.82;100.00;99069.55;103276;1261;138444;-80
2023/11/20 06:05:05;;;;;;;9.60;7.60;;;;;;;1.85;100.00;99069.33;103857;1257;97671;-81
2023/11/20 06:07:35;;;;;;;12.00;8.00;;;;;;;1.86;100.00;99071.88;103297;1261;108761;-81
2023/11/20 06:10:03;;;;;;;9.60;7.40;;;;;;;1.87;100.00;99078.38;102943;1258;138162;-80
2023/11/20 06:12:30;;;;;;;9.70;7.50;;;;;;;1.86;100.00;99082.34;103159;1257;111929;-78
2023/11/20 06:14:56;;;;;;;10.50;7.60;;;;;;;1.83;100.00;99081.69;103150;1257;137553;-80
2023/11/20 06:17:24;;;;;;;10.50;8.10;;;;;;;1.80;100.00;99088.59;102342;1261;1003640;-80
2023/11/20 06:19:51;;;;;;;9.90;7.50;;;;;;;1.77;100.00;99087.25;103169;1260;109307;-80
2023/11/20 06:22:18;;;;;;;10.00;7.70;;;;;;;1.78;100.00;99091.17;103043;1261;138009;-82
2023/11/20 06:24:46;;;;;;;10.40;7.80;;;;;;;1.77;100.00;99091.88;103077;1258;112502;-82
2023/11/20 06:27:13;;;;;;;11.10;8.10;;;;;;;1.79;100.00;99094.42;102382;1261;1003043;-83
2023/11/20 06:29:40;;;;;;;10.90;8.30;;;;;;;1.83;100.00;99095.41;103091;1258;98327;-83
2023/11/20 06:32:10;;;;;;;11.00;8.00;;;;;;;1.86;100.00;99098.28;103178;1257;138667;-82
2023/11/20 06:34:36;;;;;;;10.10;7.90;;;;;;;1.87;100.00;99101.85;103380;1257;95966;-82
2023/11/20 06:37:04;;;;;;;9.80;7.30;;;;;;;1.88;100.00;99105.77;103227;1258;110835;-83
2023/11/20 06:39:31;;;;;;;9.40;7.80;;;;;;;1.89;100.00;99107.83;103926;1257;139770;-83
2023/11/20 06:41:58;;;;;;;10.60;8.40;;;;;;;1.88;100.00;99110.41;103348;1257;98072;-83
2023/11/20 06:44:24;;;;;;;10.00;8.00;;;;;;;1.88;100.00;99112.81;103021;1260;138394;-82
2023/11/20 06:46:53;;;;;;;10.40;8.20;;;;;;;1.88;100.00;99110.40;103042;1261;97952;-82
2023/11/20 06:49:20;;;;;;;10.20;7.40;;;;;;;1.90;100.00;99112.42;103060;1257;111076;-83
2023/11/20 06:51:47;;;;;;;11.60;7.00;;;;;;;1.91;100.00;99114.80;102820;1258;138766;-82
2023/11/20 06:54:14;;;;;;;9.80;6.00;;;;;;;1.92;100.00;99117.89;102504;1257;1002844;-84
2023/11/20 06:56:41;;;;;;;7.00;5.20;;;;;;;1.90;100.00;99117.23;102828;1257;138546;-83
2023/11/20 06:59:07;;;;;;;8.10;5.40;;;;;;;1.90;100.00;99121.69;102915;1257;97902;-84
2023/11/20 07:01:34;;;;;;;8.00;5.50;;;;;;;1.90;100.00;99123.06;103318;1257;112043;-83
2023/11/20 07:04:02;;;;;;;9.90;6.10;;;;;;;1.90;100.00;99122.71;102329;1257;1002791;-83
2023/11/20 07:06:29;;;;;;;10.10;6.00;;;;;;;1.94;100.00;99124.54;103051;1260;97869;-86
2023/11/20 07:08:56;;;;;;;7.30;5.80;;;;;;;1.94;100.00;99122.13;103370;1257;138357;-83
2023/11/20 07:11:23;;;;;;;9.70;6.20;;;;;;;1.92;100.00;99129.19;103033;1257;97911;-81
2023/11/20 07:13:50;;;;;;;11.50;6.20;;;;;;;1.91;100.00;99131.95;102319;1259;1002862;-82
2023/11/20 07:16:17;;;;;;;7.70;5.90;;;;;;;1.89;100.00;99134.05;103264;1257;162607;-83
2023/11/20 07:18:44;;;;;;;9.00;6.40;;;;;;;1.88;100.00;99135.77;102616;1257;1003795;-82
2023/11/20 07:21:11;;;;;;;9.50;6.30;;;;;;;1.89;100.00;99134.22;102842;1260;138384;-82
2023/11/20 07:23:38;;;;;;;7.10;5.40;;;;;;;1.91;100.00;99143.26;102978;1257;98793;-83
2023/11/20 07:26:05;;;;;;;10.60;6.00;;;;;;;1.96;100.00;99141.80;102628;1257;1002938;-82
2023/11/20 07:28:33;;;;;;;8.20;5.20;;;;;;;2.01;100.00;99142.80;103450;1257;107342;-83
2023/11/20 07:31:00;;;;;;;9.40;5.70;;;;;;;2.04;100.00;99147.19;103118;1257;98413;-84
2023/11/20 07:33:27;;;;;;;8.60;6.20;;;;;;;2.09;100.00;99142.81;102767;1261;137960;-82
2023/11/20 07:35:55;;;;;;;9.70;6.10;;;;;;;2.15;100.00;99144.80;102819;1263;97933;-82
2023/11/20 07:38:22;;;;;;;10.90;6.20;;;;;;;2.18;100.00;99144.93;102826;1257;138187;-82
2023/11/20 07:40:50;;;;;;;9.30;6.40;;;;;;;2.18;100.00;99144.23;102201;1258;1003660;-82
2023/11/20 07:43:17;;;;;;;8.20;5.80;;;;;;;2.14;100.00;99147.03;102341;1257;1002678;-82
2023/11/20 07:45:47;;;;;;;11.00;5.90;;;;;;;2.11;100.00;99143.65;102690;1263;138405;-84
2023/11/20 07:48:14;;;;;;;10.80;6.60;;;;;;;2.12;100.00;99146.54;102962;1257;97895;-81
2023/11/20 07:50:40;;;;;;;12.10;6.40;;;;;;;2.15;100.00;99149.76;102874;1258;139559;-83
2023/11/20 07:53:07;;;;;;;9.20;6.50;;;;;;;2.17;100.00;99147.17;102902;1261;108529;-82
2023/11/20 07:55:34;;;;;;;8.50;5.80;;;;;;;2.19;100.00;99149.38;103018;1258;97702;-81
2023/11/20 07:58:01;;;;;;;8.80;5.80;;;;;;;2.20;100.00;99150.21;102969;1257;137865;-72
2023/11/20 08:00:28;;;;;;;8.70;5.60;;;;;;;2.17;100.00;99149.39;103018;1261;97776;-76
2023/11/20 08:02:55;;;;;;;10.80;6.00;;;;;;;2.13;100.00;99151.49;103137;1257;138375;-83
2023/11/20 08:05:21;;;;;;;8.40;6.40;;;;;;;2.10;100.00;99154.98;102996;1261;108539;-83
2023/11/20 08:07:49;;;;;;;7.40;5.90;;;;;;;2.07;100.00;99159.83;103010;1257;97808;-82
2023/11/20 08:10:18;;;;;;;8.10;6.20;;;;;;;2.07;100.00;99152.11;101868;1260;1003662;-83
2023/11/20 08:12:46;;;;;;;9.10;5.80;;;;;;;2.09;100.00;99149.34;102924;1257;97953;-83
2023/11/20 08:15:14;;;;;;;9.80;6.20;;;;;;;2.12;100.00;99149.28;102951;1260;138167;-82
2023/11/20 08:17:41;;;;;;;8.00;5.90;;;;;;;2.19;100.00;99145.41;102988;1257;108754;-82
2023/11/20 08:20:11;;;;;;;8.90;5.80;;;;;;;2.28;100.00;99143.71;102986;1257;139790;-82
2023/11/20 08:22:39;;;;;;;11.50;6.10;;;;;;;2.34;100.00;99148.27;103097;1261;106499;-81
2023/11/20 08:25:08;;;;;;;8.10;5.80;;;;;;;2.43;100.00;99150.85;102350;1257;1003390;-81
2023/11/20 08:27:37;;;;;;;9.60;6.30;;;;;;;2.46;100.00;99151.66;102568;1257;1003634;-82
2023/11/20 08:30:10;;;;;;;10.70;6.30;;;;;;;2.50;100.00;99150.38;103097;1258;107417;-82
2023/11/20 08:32:37;;;;;;;8.10;5.30;;;;;;;2.51;100.00;99149.85;102369;1261;1002880;-83
2023/11/20 08:35:06;;;;;;;9.70;6.00;;;;;;;2.51;100.00;99153.96;103265;1257;107644;-81
2023/11/20 08:37:33;;;;;;;12.10;6.00;;;;;;;2.52;100.00;99152.77;103000;1257;97824;-73
2023/11/20 08:40:01;;;;;;;9.30;5.50;;;;;;;2.54;100.00;99146.55;102830;1259;138188;-80
2023/11/20 08:42:28;;;;;;;8.20;5.20;;;;;;;2.57;100.00;99147.18;102823;1260;107796;-80
2023/11/20 08:44:56;;;;;;;8.10;5.50;;;;;;;2.61;100.00;99152.42;102843;1257;138357;-78
2023/11/20 08:47:23;;;;;;;7.80;5.10;;;;;;;2.62;100.00;99153.27;103009;1258;107452;-82
2023/11/20 08:49:52;;;;;;;5.90;5.30;;;;;;;2.63;100.00;99153.59;102957;1257;98455;-82
2023/11/20 08:52:19;;;;;;;8.60;5.30;;;;;;;2.64;100.00;99155.98;102910;1260;138044;-82
2023/11/20 08:54:46;;;;;;;8.40;5.40;;;;;;;2.61;100.00;99158.94;103050;1258;107629;-82
2023/11/20 08:57:13;;;;;;;9.50;6.00;;;;;;;2.63;100.00;99157.02;102790;1257;138411;-81
2023/11/20 08:59:40;;;;;;;9.60;6.70;;;;;;;2.66;100.00;99157.48;102847;1258;108232;-83
2023/11/20 09:02:08;;;;;;;12.30;7.50;;;;;;;2.67;100.00;99160.38;102819;1258;138638;-84
2023/11/20 09:04:35;;;;;;;9.70;7.10;;;;;;;2.69;100.00;99159.66;102108;1257;1003629;-81
2023/11/20 09:07:02;;;;;;;11.40;7.10;;;;;;;2.69;100.00;99159.49;102928;1259;106999;-81
2023/11/20 09:09:29;;;;;;;12.80;7.90;;;;;;;2.71;100.00;99156.20;103034;1261;137802;-80
2023/11/20 09:11:56;;;;;;;11.10;7.10;;;;;;;2.69;100.00;99154.34;103058;1261;107761;-80
2023/11/20 09:14:23;;;;;;;9.60;7.20;;;;;;;2.66;100.00;99151.82;103295;1257;138593;-79
2023/11/20 09:16:50;;;;;;;11.30;7.20;;;;;;;2.64;100.00;99153.04;103238;1257;110604;-81
2023/11/20 09:19:17;;;;;;;12.60;6.90;;;;;;;2.64;100.00;99152.20;103371;1258;109290;-81
2023/11/20 09:21:43;;;;;;;12.60;7.00;;;;;;;2.62;100.00;99151.03;102966;1257;138566;-83
2023/11/20 09:24:10;;;;;;;9.00;6.80;;;;;;;2.65;100.00;99146.00;102966;1257;107383;-81
2023/11/20 09:26:38;;;;;;;12.30;7.00;;;;;;;2.66;100.00;99146.66;102930;1257;138496;-82
2023/11/20 09:29:06;;;;;;;10.10;6.60;;;;;;;2.65;100.00;99143.08;103056;1258;111052;-81
2023/11/20 09:31:34;;;;;;;11.80;7.30;;;;;;;2.63;100.00;99139.34;102388;1257;1005430;-81
2023/11/20 09:34:01;;;;;;;12.30;6.80;;;;;;;2.64;100.00;99139.83;103280;1258;138562;-82
2023/11/20 09:36:28;;;;;;;10.00;6.50;;;;;;;2.72;100.00;99141.75;103027;1258;107832;-81
2023/11/20 09:38:55;;;;;;;12.90;6.80;;;;;;;2.78;100.00;99142.86;102742;1261;138973;-78
2023/11/20 09:41:22;;;;;;;9.50;6.20;;;;;;;2.81;100.00;99138.85;102852;1257;1002999;-78
2023/11/20 09:43:51;;;;;;;7.30;6.10;;;;;;;2.85;100.00;99142.04;102625;1257;1003717;-78
2023/11/20 09:46:19;;;;;;;9.60;6.20;;;;;;;2.84;100.00;99143.58;103119;1258;140182;-78
2023/11/20 09:48:48;;;;;;;8.90;6.40;;;;;;;2.84;100.00;99143.25;103187;1261;107568;-79
2023/11/20 09:51:21;;;;;;;11.00;6.50;;;;;;;2.85;100.00;99145.30;102823;1257;1002532;-78
2023/11/20 09:53:52;;;;;;;10.20;6.30;;;;;;;2.86;100.00;99144.23;103487;1257;110167;-78
2023/11/20 09:56:19;;;;;;;9.20;6.80;;;;;;;2.88;100.00;99149.02;103000;1257;137735;-77
2023/11/20 09:58:48;;;;;;;10.20;6.60;;;;;;;2.92;100.00;99149.45;103318;1258;97860;-78
2023/11/20 10:01:14;;;;;;;10.40;7.40;;;;;;;2.97;100.00;99146.95;103073;1258;107695;-79
2023/11/20 10:03:43;;;;;;;14.20;9.60;;;;;;;3.04;100.00;99145.80;102164;1259;1002797;-78
2023/11/20 10:06:14;;;;;;;15.80;8.80;;;;;;;3.11;100.00;99143.27;102966;1258;112168;-77
2023/11/20 10:08:43;;;;;;;10.90;7.20;;;;;;;3.17;100.00;99140.39;102464;1257;1003055;-78
2023/11/20 10:11:16;;;;;;;10.20;7.40;;;;;;;3.21;100.00;99135.31;102969;1261;97841;-78
2023/11/20 10:13:43;;;;;;;12.20;7.50;;;;;;;3.19;100.00;99136.91;102880;1259;109498;-77
2023/11/20 10:16:17;;;;;;;13.60;8.40;;;;;;;3.18;100.00;99138.98;102596;1258;1002710;-78
2023/11/20 10:18:45;;;;;;;11.80;8.20;;;;;;;3.14;100.00;99143.54;103433;1258;111146;-77
2023/11/20 10:21:14;;;;;;;16.30;7.10;;;;;;;3.11;100.00;99144.98;102901;1260;138581;-77
2023/11/20 10:23:43;;;;;;;12.60;7.30;;;;;;;3.03;100.00;99144.26;103067;1257;98431;-75
2023/11/20 10:26:10;;;;;;;8.40;6.30;;;;;;;3.01;100.00;99145.33;102933;1258;138532;-75
2023/11/20 10:28:41;;;;;;;9.90;7.00;;;;;;;2.99;100.00;99139.87;103024;1258;97800;-77
2023/11/20 10:31:08;;;;;;;10.20;6.90;;;;;;;2.98;100.00;99136.98;103015;1259;111129;-77
2023/11/20 10:33:36;;;;;;;10.80;5.90;;;;;;;2.98;100.00;99135.93;103457;1263;137243;-78
2023/11/20 10:36:14;;;;;;;10.70;6.70;;;;;;;2.99;100.00;99133.86;103125;1257;97851;-78
2023/11/20 10:38:42;;;;;;;9.70;6.60;;;;;;;2.99;100.00;99131.13;102948;1258;139577;-77
2023/11/20 10:41:10;;;;;;;13.00;6.10;;;;;;;2.96;100.00;99131.70;102966;1258;97844;-77
2023/11/20 10:43:38;;;;;;;8.20;5.80;;;;;;;2.97;100.00;99126.69;103847;1257;111979;-77
2023/11/20 10:46:06;;;;;;;10.10;6.10;;;;;;;3.01;100.00;99129.36;103835;1258;138520;-77
2023/11/20 10:48:36;;;;;;;9.40;6.40;;;;;;;2.98;100.00;99128.38;103531;1258;98347;-76
2023/11/20 10:51:08;;;;;;;10.00;6.60;;;;;;;2.99;100.00;99125.45;103202;1258;138169;-77
2023/11/20 10:53:39;;;;;;;8.90;6.30;;;;;;;3.03;100.00;99126.75;103132;1258;97812;-77
2023/11/20 10:56:08;;;;;;;10.20;6.90;;;;;;;3.09;100.00;99125.96;103149;1258;139413;-77
2023/11/20 10:58:36;;;;;;;10.40;6.60;;;;;;;3.17;100.00;99124.08;103156;1261;107715;-78
2023/11/20 11:01:07;;;;;;;10.90;6.40;;;;;;;3.21;100.00;99123.80;102846;1263;97824;-78
2023/11/20 11:03:36;;;;;;;8.30;5.90;;;;;;;3.22;100.00;99124.31;103119;1258;138404;-78
2023/11/20 11:06:09;;;;;;;8.60;6.10;;;;;;;3.24;100.00;99127.03;103164;1259;97815;-77
2023/11/20 11:08:43;;;;;;;9.80;6.40;;;;;;;3.29;100.00;99121.42;102855;1262;138524;-77
2023/11/20 11:11:13;;;;;;;10.10;5.80;;;;;;;3.31;100.00;99118.96;102806;1258;107487;-77
2023/11/20 11:13:43;;;;;;;9.20;5.80;;;;;;;3.32;100.00;99120.50;103032;1258;98400;-78